sensor_id;sensor_type;location;lat;lon;timestamp;P1;durP1;ratioP1;P2;durP2;ratioP2
54167;SDS011;68429;50.958;3.592;2023-05-07T00:02:06;10.63;;;4.20;;
54167;SDS011;68429;50.958;3.592;2023-05-07T00:04:32;12.98;;;3.47;;
54167;SDS011;68429;50.958;3.592;2023-05-07T00:07:01;9.75;;;3.50;;
54167;SDS011;68429;50.958;3.592;2023-05-07T00:09:27;12.70;;;3.83;;
54167;SDS011;68429;50.958;3.592;2023-05-07T00:11:53;12.15;;;3.35;;
54167;SDS011;68429;50.958;3.592;2023-05-07T00:14:19;12.02;;;3.70;;
54167;SDS011;68429;50.958;3.592;2023-05-07T00:16:45;13.15;;;3.58;;
54167;SDS011;68429;50.958;3.592;2023-05-07T00:19:11;11.35;;;3.17;;
54167;SDS011;68429;50.958;3.592;2023-05-07T00:21:37;8.15;;;3.15;;
54167;SDS011;68429;50.958;3.592;2023-05-07T00:24:03;10.10;;;3.50;;
54167;SDS011;68429;50.958;3.592;2023-05-07T00:26:29;17.02;;;2.95;;
54167;SDS011;68429;50.958;3.592;2023-05-07T00:28:54;11.35;;;4.72;;
54167;SDS011;68429;50.958;3.592;2023-05-07T00:31:20;10.75;;;3.40;;
54167;SDS011;68429;50.958;3.592;2023-05-07T00:33:46;10.40;;;2.72;;
54167;SDS011;68429;50.958;3.592;2023-05-07T00:36:11;8.70;;;3.28;;
54167;SDS011;68429;50.958;3.592;2023-05-07T00:38:37;13.30;;;3.97;;
54167;SDS011;68429;50.958;3.592;2023-05-07T00:41:03;12.70;;;4.35;;
54167;SDS011;68429;50.958;3.592;2023-05-07T00:43:28;9.38;;;3.72;;
54167;SDS011;68429;50.958;3.592;2023-05-07T00:45:54;9.10;;;3.45;;
54167;SDS011;68429;50.958;3.592;2023-05-07T00:48:20;7.55;;;3.30;;
54167;SDS011;68429;50.958;3.592;2023-05-07T00:50:46;7.32;;;3.67;;
54167;SDS011;68429;50.958;3.592;2023-05-07T00:53:13;12.00;;;3.28;;
54167;SDS011;68429;50.958;3.592;2023-05-07T00:55:39;9.88;;;3.97;;
54167;SDS011;68429;50.958;3.592;2023-05-07T00:58:05;7.13;;;3.30;;
54167;SDS011;68429;50.958;3.592;2023-05-07T01:00:31;8.70;;;3.50;;
54167;SDS011;68429;50.958;3.592;2023-05-07T01:02:57;12.30;;;3.88;;
54167;SDS011;68429;50.958;3.592;2023-05-07T01:05:23;11.57;;;3.80;;
54167;SDS011;68429;50.958;3.592;2023-05-07T01:07:50;10.27;;;3.42;;
54167;SDS011;68429;50.958;3.592;2023-05-07T01:10:18;14.02;;;3.60;;
54167;SDS011;68429;50.958;3.592;2023-05-07T01:12:44;9.02;;;3.58;;
54167;SDS011;68429;50.958;3.592;2023-05-07T01:15:12;12.25;;;3.95;;
54167;SDS011;68429;50.958;3.592;2023-05-07T01:17:39;8.10;;;3.30;;
54167;SDS011;68429;50.958;3.592;2023-05-07T01:20:06;12.05;;;3.92;;
54167;SDS011;68429;50.958;3.592;2023-05-07T01:22:33;4.53;;;2.97;;
54167;SDS011;68429;50.958;3.592;2023-05-07T01:25:01;11.93;;;4.37;;
54167;SDS011;68429;50.958;3.592;2023-05-07T01:27:28;11.32;;;3.78;;
54167;SDS011;68429;50.958;3.592;2023-05-07T01:29:53;11.05;;;4.03;;
54167;SDS011;68429;50.958;3.592;2023-05-07T01:32:21;9.60;;;3.78;;
54167;SDS011;68429;50.958;3.592;2023-05-07T01:34:54;9.10;;;3.78;;
54167;SDS011;68429;50.958;3.592;2023-05-07T01:37:20;8.95;;;4.07;;
54167;SDS011;68429;50.958;3.592;2023-05-07T01:39:47;10.38;;;3.90;;
54167;SDS011;68429;50.958;3.592;2023-05-07T01:42:13;11.35;;;3.35;;
54167;SDS011;68429;50.958;3.592;2023-05-07T01:44:38;11.48;;;3.45;;
54167;SDS011;68429;50.958;3.592;2023-05-07T01:47:04;6.40;;;3.40;;
54167;SDS011;68429;50.958;3.592;2023-05-07T01:49:31;8.27;;;3.20;;
54167;SDS011;68429;50.958;3.592;2023-05-07T01:51:57;7.45;;;3.08;;
54167;SDS011;68429;50.958;3.592;2023-05-07T01:54:27;11.77;;;3.80;;
54167;SDS011;68429;50.958;3.592;2023-05-07T01:56:53;9.80;;;3.20;;
54167;SDS011;68429;50.958;3.592;2023-05-07T01:59:20;9.50;;;3.38;;
54167;SDS011;68429;50.958;3.592;2023-05-07T02:01:45;15.10;;;3.97;;
54167;SDS011;68429;50.958;3.592;2023-05-07T02:04:12;9.32;;;3.72;;
54167;SDS011;68429;50.958;3.592;2023-05-07T02:06:38;10.85;;;3.45;;
54167;SDS011;68429;50.958;3.592;2023-05-07T02:09:03;13.65;;;3.75;;
54167;SDS011;68429;50.958;3.592;2023-05-07T02:11:30;10.52;;;4.40;;
54167;SDS011;68429;50.958;3.592;2023-05-07T02:13:55;11.07;;;3.90;;
54167;SDS011;68429;50.958;3.592;2023-05-07T02:16:21;10.18;;;4.07;;
54167;SDS011;68429;50.958;3.592;2023-05-07T02:18:48;13.80;;;4.07;;
54167;SDS011;68429;50.958;3.592;2023-05-07T02:21:13;10.60;;;3.63;;
54167;SDS011;68429;50.958;3.592;2023-05-07T02:23:39;7.68;;;3.65;;
54167;SDS011;68429;50.958;3.592;2023-05-07T02:26:05;21.40;;;5.72;;
54167;SDS011;68429;50.958;3.592;2023-05-07T02:28:31;8.77;;;3.70;;
54167;SDS011;68429;50.958;3.592;2023-05-07T02:30:56;15.95;;;4.43;;
54167;SDS011;68429;50.958;3.592;2023-05-07T02:33:24;12.30;;;4.03;;
54167;SDS011;68429;50.958;3.592;2023-05-07T02:35:50;10.98;;;3.60;;
54167;SDS011;68429;50.958;3.592;2023-05-07T02:38:17;13.63;;;3.67;;
54167;SDS011;68429;50.958;3.592;2023-05-07T02:40:42;17.95;;;4.50;;
54167;SDS011;68429;50.958;3.592;2023-05-07T02:43:08;7.78;;;3.92;;
54167;SDS011;68429;50.958;3.592;2023-05-07T02:45:34;11.10;;;4.00;;
54167;SDS011;68429;50.958;3.592;2023-05-07T02:48:01;6.72;;;3.40;;
54167;SDS011;68429;50.958;3.592;2023-05-07T02:50:26;10.55;;;3.80;;
54167;SDS011;68429;50.958;3.592;2023-05-07T02:52:52;9.57;;;3.13;;
54167;SDS011;68429;50.958;3.592;2023-05-07T02:55:18;9.32;;;3.45;;
54167;SDS011;68429;50.958;3.592;2023-05-07T02:57:43;10.85;;;3.40;;
54167;SDS011;68429;50.958;3.592;2023-05-07T03:00:10;10.45;;;3.78;;
54167;SDS011;68429;50.958;3.592;2023-05-07T03:02:40;10.32;;;4.05;;
54167;SDS011;68429;50.958;3.592;2023-05-07T03:05:06;14.45;;;3.20;;
54167;SDS011;68429;50.958;3.592;2023-05-07T03:07:32;9.50;;;3.20;;
54167;SDS011;68429;50.958;3.592;2023-05-07T03:09:58;7.82;;;3.50;;
54167;SDS011;68429;50.958;3.592;2023-05-07T03:12:23;10.32;;;2.95;;
54167;SDS011;68429;50.958;3.592;2023-05-07T03:14:49;7.13;;;3.40;;
54167;SDS011;68429;50.958;3.592;2023-05-07T03:17:15;13.20;;;3.55;;
54167;SDS011;68429;50.958;3.592;2023-05-07T03:19:41;7.28;;;3.25;;
54167;SDS011;68429;50.958;3.592;2023-05-07T03:22:06;15.10;;;5.05;;
54167;SDS011;68429;50.958;3.592;2023-05-07T03:24:32;10.68;;;3.13;;
54167;SDS011;68429;50.958;3.592;2023-05-07T03:26:58;11.27;;;3.45;;
54167;SDS011;68429;50.958;3.592;2023-05-07T03:29:23;11.45;;;5.45;;
54167;SDS011;68429;50.958;3.592;2023-05-07T03:31:49;7.43;;;3.72;;
54167;SDS011;68429;50.958;3.592;2023-05-07T03:34:15;10.27;;;3.65;;
54167;SDS011;68429;50.958;3.592;2023-05-07T03:36:42;13.32;;;4.45;;
54167;SDS011;68429;50.958;3.592;2023-05-07T03:39:07;10.27;;;4.03;;
54167;SDS011;68429;50.958;3.592;2023-05-07T03:41:33;8.25;;;3.60;;
54167;SDS011;68429;50.958;3.592;2023-05-07T03:43:59;12.57;;;3.60;;
54167;SDS011;68429;50.958;3.592;2023-05-07T03:46:25;10.27;;;4.40;;
54167;SDS011;68429;50.958;3.592;2023-05-07T03:48:51;10.13;;;3.78;;
54167;SDS011;68429;50.958;3.592;2023-05-07T03:51:17;10.13;;;3.72;;
54167;SDS011;68429;50.958;3.592;2023-05-07T03:53:42;10.55;;;3.75;;
54167;SDS011;68429;50.958;3.592;2023-05-07T03:56:08;10.60;;;3.78;;
54167;SDS011;68429;50.958;3.592;2023-05-07T03:58:34;11.55;;;3.80;;
54167;SDS011;68429;50.958;3.592;2023-05-07T04:01:00;8.45;;;3.72;;
54167;SDS011;68429;50.958;3.592;2023-05-07T04:03:26;15.70;;;4.00;;
54167;SDS011;68429;50.958;3.592;2023-05-07T04:05:51;9.52;;;3.83;;
54167;SDS011;68429;50.958;3.592;2023-05-07T04:08:17;14.43;;;3.70;;
54167;SDS011;68429;50.958;3.592;2023-05-07T04:10:43;6.93;;;3.38;;
54167;SDS011;68429;50.958;3.592;2023-05-07T04:13:08;7.55;;;3.60;;
54167;SDS011;68429;50.958;3.592;2023-05-07T04:15:35;8.80;;;3.17;;
54167;SDS011;68429;50.958;3.592;2023-05-07T04:18:00;8.68;;;3.72;;
54167;SDS011;68429;50.958;3.592;2023-05-07T04:20:26;7.60;;;3.42;;
54167;SDS011;68429;50.958;3.592;2023-05-07T04:22:52;9.52;;;3.80;;
54167;SDS011;68429;50.958;3.592;2023-05-07T04:25:18;14.60;;;4.35;;
54167;SDS011;68429;50.958;3.592;2023-05-07T04:27:43;11.50;;;3.60;;
54167;SDS011;68429;50.958;3.592;2023-05-07T04:30:09;9.77;;;3.42;;
54167;SDS011;68429;50.958;3.592;2023-05-07T04:32:35;8.85;;;3.30;;
54167;SDS011;68429;50.958;3.592;2023-05-07T04:35:02;9.05;;;3.72;;
54167;SDS011;68429;50.958;3.592;2023-05-07T04:37:28;9.68;;;3.63;;
54167;SDS011;68429;50.958;3.592;2023-05-07T04:39:53;8.73;;;3.97;;
54167;SDS011;68429;50.958;3.592;2023-05-07T04:42:19;15.70;;;4.75;;
54167;SDS011;68429;50.958;3.592;2023-05-07T04:44:45;6.15;;;3.50;;
54167;SDS011;68429;50.958;3.592;2023-05-07T04:47:11;14.77;;;4.95;;
54167;SDS011;68429;50.958;3.592;2023-05-07T04:49:37;10.52;;;3.65;;
54167;SDS011;68429;50.958;3.592;2023-05-07T04:52:03;13.15;;;4.93;;
54167;SDS011;68429;50.958;3.592;2023-05-07T04:54:29;11.98;;;4.88;;
54167;SDS011;68429;50.958;3.592;2023-05-07T04:56:55;9.70;;;3.97;;
54167;SDS011;68429;50.958;3.592;2023-05-07T04:59:21;13.63;;;4.40;;
54167;SDS011;68429;50.958;3.592;2023-05-07T05:01:47;11.90;;;4.57;;
54167;SDS011;68429;50.958;3.592;2023-05-07T05:04:12;8.50;;;4.22;;
54167;SDS011;68429;50.958;3.592;2023-05-07T05:06:38;13.85;;;4.15;;
54167;SDS011;68429;50.958;3.592;2023-05-07T05:09:04;11.73;;;4.97;;
54167;SDS011;68429;50.958;3.592;2023-05-07T05:11:30;9.82;;;4.05;;
54167;SDS011;68429;50.958;3.592;2023-05-07T05:13:56;9.32;;;4.18;;
54167;SDS011;68429;50.958;3.592;2023-05-07T05:16:24;8.48;;;4.03;;
54167;SDS011;68429;50.958;3.592;2023-05-07T05:18:49;10.18;;;4.47;;
54167;SDS011;68429;50.958;3.592;2023-05-07T05:21:17;14.88;;;4.43;;
54167;SDS011;68429;50.958;3.592;2023-05-07T05:23:42;14.35;;;4.70;;
54167;SDS011;68429;50.958;3.592;2023-05-07T05:26:08;11.63;;;4.50;;
54167;SDS011;68429;50.958;3.592;2023-05-07T05:28:34;10.85;;;4.35;;
54167;SDS011;68429;50.958;3.592;2023-05-07T05:30:59;11.52;;;5.15;;
54167;SDS011;68429;50.958;3.592;2023-05-07T05:33:25;9.38;;;4.78;;
54167;SDS011;68429;50.958;3.592;2023-05-07T05:35:51;10.30;;;5.57;;
54167;SDS011;68429;50.958;3.592;2023-05-07T05:38:17;14.65;;;5.32;;
54167;SDS011;68429;50.958;3.592;2023-05-07T05:40:42;11.93;;;5.00;;
54167;SDS011;68429;50.958;3.592;2023-05-07T05:43:08;14.20;;;6.60;;
54167;SDS011;68429;50.958;3.592;2023-05-07T05:45:34;13.07;;;5.70;;
54167;SDS011;68429;50.958;3.592;2023-05-07T05:48:00;15.15;;;5.80;;
54167;SDS011;68429;50.958;3.592;2023-05-07T05:50:25;14.77;;;5.25;;
54167;SDS011;68429;50.958;3.592;2023-05-07T05:52:51;14.63;;;6.43;;
54167;SDS011;68429;50.958;3.592;2023-05-07T05:55:17;12.30;;;5.55;;
54167;SDS011;68429;50.958;3.592;2023-05-07T05:57:42;13.32;;;6.05;;
54167;SDS011;68429;50.958;3.592;2023-05-07T06:00:08;16.70;;;5.55;;
54167;SDS011;68429;50.958;3.592;2023-05-07T06:02:34;12.25;;;6.13;;
54167;SDS011;68429;50.958;3.592;2023-05-07T06:05:00;13.77;;;6.40;;
54167;SDS011;68429;50.958;3.592;2023-05-07T06:07:25;9.63;;;5.03;;
54167;SDS011;68429;50.958;3.592;2023-05-07T06:09:51;12.05;;;5.43;;
54167;SDS011;68429;50.958;3.592;2023-05-07T06:12:17;8.95;;;4.95;;
54167;SDS011;68429;50.958;3.592;2023-05-07T06:14:43;11.38;;;5.25;;
54167;SDS011;68429;50.958;3.592;2023-05-07T06:17:09;9.57;;;4.68;;
54167;SDS011;68429;50.958;3.592;2023-05-07T06:19:34;11.80;;;4.60;;
54167;SDS011;68429;50.958;3.592;2023-05-07T06:22:00;14.00;;;4.70;;
54167;SDS011;68429;50.958;3.592;2023-05-07T06:24:27;15.57;;;4.80;;
54167;SDS011;68429;50.958;3.592;2023-05-07T06:26:53;13.25;;;5.07;;
54167;SDS011;68429;50.958;3.592;2023-05-07T06:29:19;8.57;;;4.28;;
54167;SDS011;68429;50.958;3.592;2023-05-07T06:31:45;13.90;;;4.72;;
54167;SDS011;68429;50.958;3.592;2023-05-07T06:34:11;9.93;;;4.82;;
54167;SDS011;68429;50.958;3.592;2023-05-07T06:36:39;10.20;;;4.75;;
54167;SDS011;68429;50.958;3.592;2023-05-07T06:39:05;9.00;;;4.50;;
54167;SDS011;68429;50.958;3.592;2023-05-07T06:41:31;11.70;;;5.32;;
54167;SDS011;68429;50.958;3.592;2023-05-07T06:43:57;14.60;;;4.93;;
54167;SDS011;68429;50.958;3.592;2023-05-07T06:46:23;14.00;;;5.50;;
54167;SDS011;68429;50.958;3.592;2023-05-07T06:48:48;11.38;;;4.70;;
54167;SDS011;68429;50.958;3.592;2023-05-07T06:51:14;10.55;;;5.15;;
54167;SDS011;68429;50.958;3.592;2023-05-07T06:53:40;8.60;;;4.63;;
54167;SDS011;68429;50.958;3.592;2023-05-07T06:56:05;15.07;;;5.03;;
54167;SDS011;68429;50.958;3.592;2023-05-07T06:58:31;18.85;;;5.28;;
54167;SDS011;68429;50.958;3.592;2023-05-07T07:00:57;14.52;;;4.88;;
54167;SDS011;68429;50.958;3.592;2023-05-07T07:03:23;10.80;;;5.05;;
54167;SDS011;68429;50.958;3.592;2023-05-07T07:05:52;11.02;;;4.97;;
54167;SDS011;68429;50.958;3.592;2023-05-07T07:08:18;9.52;;;4.90;;
54167;SDS011;68429;50.958;3.592;2023-05-07T07:10:46;11.60;;;4.75;;
54167;SDS011;68429;50.958;3.592;2023-05-07T07:13:12;14.98;;;4.78;;
54167;SDS011;68429;50.958;3.592;2023-05-07T07:15:38;12.60;;;4.38;;
54167;SDS011;68429;50.958;3.592;2023-05-07T07:18:05;10.38;;;4.75;;
54167;SDS011;68429;50.958;3.592;2023-05-07T07:20:31;10.52;;;4.78;;
54167;SDS011;68429;50.958;3.592;2023-05-07T07:22:56;12.52;;;4.70;;
54167;SDS011;68429;50.958;3.592;2023-05-07T07:25:22;10.55;;;4.85;;
54167;SDS011;68429;50.958;3.592;2023-05-07T07:27:48;11.30;;;4.55;;
54167;SDS011;68429;50.958;3.592;2023-05-07T07:30:14;12.38;;;5.38;;
54167;SDS011;68429;50.958;3.592;2023-05-07T07:32:40;8.88;;;5.07;;
54167;SDS011;68429;50.958;3.592;2023-05-07T07:35:06;11.07;;;5.45;;
54167;SDS011;68429;50.958;3.592;2023-05-07T07:37:32;12.55;;;5.20;;
54167;SDS011;68429;50.958;3.592;2023-05-07T07:39:57;12.77;;;6.10;;
54167;SDS011;68429;50.958;3.592;2023-05-07T07:42:23;10.63;;;5.55;;
54167;SDS011;68429;50.958;3.592;2023-05-07T07:44:49;18.45;;;6.30;;
54167;SDS011;68429;50.958;3.592;2023-05-07T07:47:15;11.15;;;5.97;;
54167;SDS011;68429;50.958;3.592;2023-05-07T07:49:40;21.65;;;6.40;;
54167;SDS011;68429;50.958;3.592;2023-05-07T07:52:06;16.65;;;6.35;;
54167;SDS011;68429;50.958;3.592;2023-05-07T07:54:32;17.48;;;8.15;;
54167;SDS011;68429;50.958;3.592;2023-05-07T07:56:57;14.90;;;7.10;;
54167;SDS011;68429;50.958;3.592;2023-05-07T07:59:23;19.75;;;6.70;;
54167;SDS011;68429;50.958;3.592;2023-05-07T08:01:49;12.27;;;7.20;;
54167;SDS011;68429;50.958;3.592;2023-05-07T08:04:17;16.92;;;7.05;;
54167;SDS011;68429;50.958;3.592;2023-05-07T08:06:42;13.68;;;6.57;;
54167;SDS011;68429;50.958;3.592;2023-05-07T08:09:08;11.35;;;6.80;;
54167;SDS011;68429;50.958;3.592;2023-05-07T08:11:34;13.45;;;6.53;;
54167;SDS011;68429;50.958;3.592;2023-05-07T08:14:00;13.35;;;6.63;;
54167;SDS011;68429;50.958;3.592;2023-05-07T08:16:26;10.45;;;5.68;;
54167;SDS011;68429;50.958;3.592;2023-05-07T08:18:52;12.23;;;5.85;;
54167;SDS011;68429;50.958;3.592;2023-05-07T08:21:17;8.60;;;5.60;;
54167;SDS011;68429;50.958;3.592;2023-05-07T08:23:43;16.52;;;6.30;;
54167;SDS011;68429;50.958;3.592;2023-05-07T08:26:09;11.30;;;5.57;;
54167;SDS011;68429;50.958;3.592;2023-05-07T08:28:35;12.55;;;5.15;;
54167;SDS011;68429;50.958;3.592;2023-05-07T08:31:01;10.68;;;5.18;;
54167;SDS011;68429;50.958;3.592;2023-05-07T08:33:26;14.00;;;5.70;;
54167;SDS011;68429;50.958;3.592;2023-05-07T08:35:52;9.85;;;5.15;;
54167;SDS011;68429;50.958;3.592;2023-05-07T08:38:18;9.70;;;4.82;;
54167;SDS011;68429;50.958;3.592;2023-05-07T08:40:45;11.02;;;5.00;;
54167;SDS011;68429;50.958;3.592;2023-05-07T08:43:15;11.98;;;5.38;;
54167;SDS011;68429;50.958;3.592;2023-05-07T08:45:41;10.75;;;5.57;;
54167;SDS011;68429;50.958;3.592;2023-05-07T08:48:19;11.50;;;5.80;;
54167;SDS011;68429;50.958;3.592;2023-05-07T08:50:50;10.07;;;5.25;;
54167;SDS011;68429;50.958;3.592;2023-05-07T08:53:16;12.80;;;5.47;;
54167;SDS011;68429;50.958;3.592;2023-05-07T08:55:42;10.15;;;5.32;;
54167;SDS011;68429;50.958;3.592;2023-05-07T08:58:08;8.52;;;4.43;;
54167;SDS011;68429;50.958;3.592;2023-05-07T09:00:34;7.25;;;4.70;;
54167;SDS011;68429;50.958;3.592;2023-05-07T09:03:02;14.23;;;6.32;;
54167;SDS011;68429;50.958;3.592;2023-05-07T09:05:27;13.30;;;5.70;;
54167;SDS011;68429;50.958;3.592;2023-05-07T09:07:53;10.25;;;4.60;;
54167;SDS011;68429;50.958;3.592;2023-05-07T09:10:20;6.07;;;4.25;;
54167;SDS011;68429;50.958;3.592;2023-05-07T09:12:47;8.15;;;3.85;;
54167;SDS011;68429;50.958;3.592;2023-05-07T09:15:13;11.55;;;4.15;;
54167;SDS011;68429;50.958;3.592;2023-05-07T09:17:39;8.70;;;4.60;;
54167;SDS011;68429;50.958;3.592;2023-05-07T09:20:07;7.85;;;4.65;;
54167;SDS011;68429;50.958;3.592;2023-05-07T09:22:33;13.48;;;4.20;;
54167;SDS011;68429;50.958;3.592;2023-05-07T09:25:01;9.00;;;4.30;;
54167;SDS011;68429;50.958;3.592;2023-05-07T09:27:27;9.05;;;4.15;;
54167;SDS011;68429;50.958;3.592;2023-05-07T09:29:53;9.07;;;3.90;;
54167;SDS011;68429;50.958;3.592;2023-05-07T09:32:18;8.73;;;3.80;;
54167;SDS011;68429;50.958;3.592;2023-05-07T09:34:44;8.02;;;3.90;;
54167;SDS011;68429;50.958;3.592;2023-05-07T09:37:10;11.15;;;4.95;;
54167;SDS011;68429;50.958;3.592;2023-05-07T09:39:41;5.47;;;2.78;;
54167;SDS011;68429;50.958;3.592;2023-05-07T09:42:12;8.43;;;3.50;;
54167;SDS011;68429;50.958;3.592;2023-05-07T09:44:40;8.07;;;3.83;;
54167;SDS011;68429;50.958;3.592;2023-05-07T09:47:08;3.85;;;3.15;;
54167;SDS011;68429;50.958;3.592;2023-05-07T09:49:35;6.15;;;2.97;;
54167;SDS011;68429;50.958;3.592;2023-05-07T09:52:03;7.88;;;3.65;;
54167;SDS011;68429;50.958;3.592;2023-05-07T09:54:39;5.30;;;3.58;;
54167;SDS011;68429;50.958;3.592;2023-05-07T09:57:08;8.05;;;3.55;;
54167;SDS011;68429;50.958;3.592;2023-05-07T09:59:36;8.00;;;2.55;;
54167;SDS011;68429;50.958;3.592;2023-05-07T10:02:03;4.22;;;2.25;;
54167;SDS011;68429;50.958;3.592;2023-05-07T10:04:30;2.70;;;2.47;;
54167;SDS011;68429;50.958;3.592;2023-05-07T10:06:57;7.40;;;2.60;;
54167;SDS011;68429;50.958;3.592;2023-05-07T10:09:23;6.50;;;2.60;;
54167;SDS011;68429;50.958;3.592;2023-05-07T10:11:51;4.32;;;1.90;;
54167;SDS011;68429;50.958;3.592;2023-05-07T10:14:17;5.88;;;2.10;;
54167;SDS011;68429;50.958;3.592;2023-05-07T10:16:44;4.30;;;1.85;;
54167;SDS011;68429;50.958;3.592;2023-05-07T10:19:12;2.38;;;1.40;;
54167;SDS011;68429;50.958;3.592;2023-05-07T10:21:39;5.25;;;1.75;;
54167;SDS011;68429;50.958;3.592;2023-05-07T10:24:22;3.88;;;1.58;;
54167;SDS011;68429;50.958;3.592;2023-05-07T10:26:51;6.63;;;2.60;;
54167;SDS011;68429;50.958;3.592;2023-05-07T10:31:59;3.08;;;1.83;;
54167;SDS011;68429;50.958;3.592;2023-05-07T10:34:49;3.70;;;2.13;;
54167;SDS011;68429;50.958;3.592;2023-05-07T10:37:18;4.85;;;2.17;;
54167;SDS011;68429;50.958;3.592;2023-05-07T10:39:44;4.68;;;1.83;;
54167;SDS011;68429;50.958;3.592;2023-05-07T10:42:11;6.97;;;2.47;;
54167;SDS011;68429;50.958;3.592;2023-05-07T10:44:38;5.80;;;1.80;;
54167;SDS011;68429;50.958;3.592;2023-05-07T10:47:04;5.03;;;3.10;;
54167;SDS011;68429;50.958;3.592;2023-05-07T10:52:20;3.88;;;2.28;;
54167;SDS011;68429;50.958;3.592;2023-05-07T10:54:48;6.50;;;2.60;;
54167;SDS011;68429;50.958;3.592;2023-05-07T10:57:39;5.05;;;2.20;;
54167;SDS011;68429;50.958;3.592;2023-05-07T11:05:24;4.43;;;2.45;;
54167;SDS011;68429;50.958;3.592;2023-05-07T11:07:57;5.97;;;2.30;;
54167;SDS011;68429;50.958;3.592;2023-05-07T11:16:22;3.83;;;2.00;;
54167;SDS011;68429;50.958;3.592;2023-05-07T11:18:49;4.18;;;1.88;;
54167;SDS011;68429;50.958;3.592;2023-05-07T11:21:35;3.70;;;1.80;;
54167;SDS011;68429;50.958;3.592;2023-05-07T11:24:01;4.13;;;1.88;;
54167;SDS011;68429;50.958;3.592;2023-05-07T11:26:41;5.57;;;1.65;;
54167;SDS011;68429;50.958;3.592;2023-05-07T11:29:12;4.22;;;1.75;;
54167;SDS011;68429;50.958;3.592;2023-05-07T11:31:42;3.50;;;1.75;;
54167;SDS011;68429;50.958;3.592;2023-05-07T11:34:08;2.63;;;1.70;;
54167;SDS011;68429;50.958;3.592;2023-05-07T11:36:34;4.55;;;1.92;;
54167;SDS011;68429;50.958;3.592;2023-05-07T11:39:05;4.60;;;1.42;;
54167;SDS011;68429;50.958;3.592;2023-05-07T11:41:47;2.40;;;1.40;;
54167;SDS011;68429;50.958;3.592;2023-05-07T11:44:13;4.03;;;1.63;;
54167;SDS011;68429;50.958;3.592;2023-05-07T11:46:42;3.95;;;1.33;;
54167;SDS011;68429;50.958;3.592;2023-05-07T11:49:09;2.80;;;1.50;;
54167;SDS011;68429;50.958;3.592;2023-05-07T11:51:35;5.55;;;1.70;;
54167;SDS011;68429;50.958;3.592;2023-05-07T11:54:03;3.83;;;1.65;;
54167;SDS011;68429;50.958;3.592;2023-05-07T11:56:29;3.75;;;1.77;;
54167;SDS011;68429;50.958;3.592;2023-05-07T11:59:00;2.28;;;1.35;;
54167;SDS011;68429;50.958;3.592;2023-05-07T12:01:26;3.08;;;1.77;;
54167;SDS011;68429;50.958;3.592;2023-05-07T12:03:51;2.30;;;1.45;;
54167;SDS011;68429;50.958;3.592;2023-05-07T12:06:17;2.85;;;1.75;;
54167;SDS011;68429;50.958;3.592;2023-05-07T12:08:44;2.67;;;1.83;;
54167;SDS011;68429;50.958;3.592;2023-05-07T12:11:13;4.38;;;1.85;;
54167;SDS011;68429;50.958;3.592;2023-05-07T12:13:42;5.00;;;2.00;;
54167;SDS011;68429;50.958;3.592;2023-05-07T12:16:09;2.63;;;1.95;;
54167;SDS011;68429;50.958;3.592;2023-05-07T12:18:35;1.80;;;1.50;;
54167;SDS011;68429;50.958;3.592;2023-05-07T12:21:02;2.35;;;1.50;;
54167;SDS011;68429;50.958;3.592;2023-05-07T12:23:29;3.38;;;1.83;;
54167;SDS011;68429;50.958;3.592;2023-05-07T12:25:55;4.03;;;1.70;;
54167;SDS011;68429;50.958;3.592;2023-05-07T12:28:20;1.88;;;1.65;;
54167;SDS011;68429;50.958;3.592;2023-05-07T12:30:47;2.60;;;1.35;;
54167;SDS011;68429;50.958;3.592;2023-05-07T12:33:17;2.17;;;1.90;;
54167;SDS011;68429;50.958;3.592;2023-05-07T12:35:44;1.67;;;1.42;;
54167;SDS011;68429;50.958;3.592;2023-05-07T12:38:10;4.13;;;1.80;;
54167;SDS011;68429;50.958;3.592;2023-05-07T12:40:38;2.75;;;1.20;;
54167;SDS011;68429;50.958;3.592;2023-05-07T12:43:15;2.00;;;1.40;;
54167;SDS011;68429;50.958;3.592;2023-05-07T12:45:49;2.75;;;1.88;;
54167;SDS011;68429;50.958;3.592;2023-05-07T12:48:15;1.77;;;1.35;;
54167;SDS011;68429;50.958;3.592;2023-05-07T12:50:41;1.92;;;1.42;;
54167;SDS011;68429;50.958;3.592;2023-05-07T12:53:10;4.40;;;1.63;;
54167;SDS011;68429;50.958;3.592;2023-05-07T12:55:41;1.58;;;1.20;;
54167;SDS011;68429;50.958;3.592;2023-05-07T12:58:07;3.70;;;1.35;;
54167;SDS011;68429;50.958;3.592;2023-05-07T13:00:39;4.05;;;1.85;;
54167;SDS011;68429;50.958;3.592;2023-05-07T13:03:05;1.92;;;1.38;;
54167;SDS011;68429;50.958;3.592;2023-05-07T13:05:31;2.60;;;1.30;;
54167;SDS011;68429;50.958;3.592;2023-05-07T13:07:57;5.82;;;1.92;;
54167;SDS011;68429;50.958;3.592;2023-05-07T13:10:23;3.10;;;1.33;;
54167;SDS011;68429;50.958;3.592;2023-05-07T13:12:49;1.92;;;1.20;;
54167;SDS011;68429;50.958;3.592;2023-05-07T13:15:16;6.78;;;1.50;;
54167;SDS011;68429;50.958;3.592;2023-05-07T13:17:42;4.28;;;1.85;;
54167;SDS011;68429;50.958;3.592;2023-05-07T13:20:11;1.85;;;1.00;;
54167;SDS011;68429;50.958;3.592;2023-05-07T13:22:38;2.47;;;1.35;;
54167;SDS011;68429;50.958;3.592;2023-05-07T13:25:04;2.13;;;1.10;;
54167;SDS011;68429;50.958;3.592;2023-05-07T13:27:30;5.40;;;1.20;;
54167;SDS011;68429;50.958;3.592;2023-05-07T13:29:56;2.83;;;1.25;;
54167;SDS011;68429;50.958;3.592;2023-05-07T13:32:22;3.33;;;1.25;;
54167;SDS011;68429;50.958;3.592;2023-05-07T13:34:48;2.90;;;1.30;;
54167;SDS011;68429;50.958;3.592;2023-05-07T13:37:13;2.17;;;1.40;;
54167;SDS011;68429;50.958;3.592;2023-05-07T13:39:39;2.90;;;1.40;;
54167;SDS011;68429;50.958;3.592;2023-05-07T13:42:05;2.08;;;1.50;;
54167;SDS011;68429;50.958;3.592;2023-05-07T13:44:31;1.83;;;1.40;;
54167;SDS011;68429;50.958;3.592;2023-05-07T13:46:58;2.97;;;1.48;;
54167;SDS011;68429;50.958;3.592;2023-05-07T13:49:23;4.13;;;1.30;;
54167;SDS011;68429;50.958;3.592;2023-05-07T13:51:49;2.55;;;1.38;;
54167;SDS011;68429;50.958;3.592;2023-05-07T13:54:15;3.50;;;1.55;;
54167;SDS011;68429;50.958;3.592;2023-05-07T13:56:40;4.60;;;1.92;;
54167;SDS011;68429;50.958;3.592;2023-05-07T13:59:06;5.53;;;1.85;;
54167;SDS011;68429;50.958;3.592;2023-05-07T14:01:32;3.03;;;1.60;;
54167;SDS011;68429;50.958;3.592;2023-05-07T14:03:58;2.53;;;1.60;;
54167;SDS011;68429;50.958;3.592;2023-05-07T14:06:24;2.05;;;1.48;;
54167;SDS011;68429;50.958;3.592;2023-05-07T14:08:50;3.08;;;1.90;;
54167;SDS011;68429;50.958;3.592;2023-05-07T14:11:15;5.35;;;2.85;;
54167;SDS011;68429;50.958;3.592;2023-05-07T14:13:41;3.90;;;1.92;;
54167;SDS011;68429;50.958;3.592;2023-05-07T14:16:07;3.50;;;2.35;;
54167;SDS011;68429;50.958;3.592;2023-05-07T14:18:32;7.45;;;2.60;;
54167;SDS011;68429;50.958;3.592;2023-05-07T14:20:59;4.97;;;2.80;;
54167;SDS011;68429;50.958;3.592;2023-05-07T14:23:25;5.50;;;3.05;;
54167;SDS011;68429;50.958;3.592;2023-05-07T14:25:51;7.50;;;4.80;;
54167;SDS011;68429;50.958;3.592;2023-05-07T14:28:18;6.13;;;4.45;;
54167;SDS011;68429;50.958;3.592;2023-05-07T14:30:44;8.25;;;5.03;;
54167;SDS011;68429;50.958;3.592;2023-05-07T14:33:09;8.82;;;5.35;;
54167;SDS011;68429;50.958;3.592;2023-05-07T14:35:35;8.52;;;5.20;;
54167;SDS011;68429;50.958;3.592;2023-05-07T14:38:01;9.35;;;5.38;;
54167;SDS011;68429;50.958;3.592;2023-05-07T14:40:26;6.95;;;5.82;;
54167;SDS011;68429;50.958;3.592;2023-05-07T14:42:52;13.65;;;6.75;;
54167;SDS011;68429;50.958;3.592;2023-05-07T14:45:17;17.15;;;6.38;;
54167;SDS011;68429;50.958;3.592;2023-05-07T14:47:43;11.40;;;5.80;;
54167;SDS011;68429;50.958;3.592;2023-05-07T14:50:09;8.68;;;6.40;;
54167;SDS011;68429;50.958;3.592;2023-05-07T14:52:34;10.50;;;6.57;;
54167;SDS011;68429;50.958;3.592;2023-05-07T14:55:00;13.52;;;6.50;;